Time;durP1;ratioP1;P1;durP2;ratioP2;P2;SDS_P1;SDS_P2;PMS_P1;PMS_P2;Temp;Humidity;BMP_temperature;BMP_pressure;BME280_temperature;BME280_humidity;BME280_pressure;Samples;Min_cycle;Max_cycle;Signal;HPM_P1;HPM_P2
2022/10/30 00:00:50;;;;;;;11.47;6.70;;;;;;;16.58;63.33;100251.08;1720338;81;21739;-71
2022/10/30 00:03:17;;;;;;;9.20;6.30;;;;;;;16.61;63.22;100255.84;1727203;83;21751;-72
2022/10/30 00:05:47;;;;;;;12.30;7.13;;;;;;;16.59;63.19;100258.06;1754507;81;22324;-72
2022/10/30 00:08:15;;;;;;;13.50;7.00;;;;;;;16.61;63.16;100255.05;1734349;81;21734;-72
2022/10/30 00:10:42;;;;;;;12.13;7.10;;;;;;;16.63;63.07;100258.25;1715557;83;21857;-73
2022/10/30 00:13:10;;;;;;;12.73;6.70;;;;;;;16.63;63.02;100252.30;1728076;83;21725;-71
2022/10/30 00:15:37;;;;;;;12.80;7.00;;;;;;;16.62;62.95;100260.16;1712516;83;21837;-72
2022/10/30 00:18:04;;;;;;;11.97;7.20;;;;;;;16.60;62.90;100259.65;1697589;83;21753;-74
2022/10/30 00:20:31;;;;;;;11.73;7.53;;;;;;;16.61;62.74;100254.49;1730576;81;21721;-74
2022/10/30 00:22:58;;;;;;;12.33;7.07;;;;;;;16.63;62.62;100257.69;1695235;84;21804;-73
2022/10/30 00:25:25;;;;;;;10.63;6.67;;;;;;;16.66;62.54;100257.64;1702724;81;21681;-73
2022/10/30 00:27:52;;;;;;;10.17;6.93;;;;;;;16.67;62.38;100266.52;1731940;81;21725;-72
2022/10/30 00:30:22;;;;;;;12.43;6.93;;;;;;;16.69;62.33;100279.16;1698858;83;21869;-74
2022/10/30 00:32:49;;;;;;;15.47;7.33;;;;;;;16.65;62.20;100280.33;1722885;81;22215;-72
2022/10/30 00:35:17;;;;;;;10.47;6.20;;;;;;;16.65;62.29;100267.63;1716624;83;21004;-72
2022/10/30 00:37:44;;;;;;;10.83;6.70;;;;;;;16.60;62.12;100269.64;1714465;83;21776;-72
2022/10/30 00:40:15;;;;;;;13.77;7.13;;;;;;;16.60;62.12;100270.43;1723920;82;21808;-73
2022/10/30 00:42:41;;;;;;;10.90;6.60;;;;;;;16.59;62.15;100264.01;1754801;81;21738;-71
2022/10/30 00:45:13;;;;;;;14.27;7.03;;;;;;;16.57;62.07;100258.91;1730731;81;21564;-72
2022/10/30 00:47:55;;;;;;;10.00;6.42;;;;;;;16.53;62.13;100250.39;1695851;84;21791;-73
2022/10/30 00:50:30;;;;;;;10.63;7.20;;;;;;;16.49;62.22;100247.51;1713263;83;21098;-73
2022/10/30 00:53:04;;;;;;;12.20;7.20;;;;;;;16.40;62.44;100249.32;1730530;81;22177;-73
2022/10/30 00:55:37;;;;;;;11.70;6.60;;;;;;;16.40;62.44;100249.32;1724455;83;21225;-71
2022/10/30 00:58:06;;;;;;;12.23;7.20;;;;;;;16.40;62.50;100248.77;1724703;83;21697;-72
2022/10/30 01:00:34;;;;;;;11.73;6.63;;;;;;;16.37;62.43;100247.23;1724997;83;21079;-72
2022/10/30 01:03:01;;;;;;;11.60;6.67;;;;;;;16.30;62.52;100244.16;1722128;83;21701;-72
2022/10/30 01:05:28;;;;;;;14.80;7.53;;;;;;;16.34;62.51;100250.53;1721277;83;21792;-73
2022/10/30 01:07:55;;;;;;;11.10;6.33;;;;;;;16.36;62.42;100250.48;1724655;83;21860;-73
2022/10/30 01:10:22;;;;;;;10.83;6.33;;;;;;;16.37;62.40;100248.02;1725060;83;21694;-73
2022/10/30 01:12:50;;;;;;;10.23;6.30;;;;;;;16.36;62.41;100253.17;1719880;81;22335;-74
2022/10/30 01:15:17;;;;;;;13.00;7.30;;;;;;;16.35;62.40;100258.85;1710177;82;21689;-71
2022/10/30 01:18:14;;;;;;;12.00;6.53;;;;;;;16.35;62.48;100256.16;1731541;81;21840;-73
2022/10/30 01:20:56;;;;;;;12.77;7.13;;;;;;;16.35;62.42;100277.20;1733600;81;21713;-74
2022/10/30 01:23:46;;;;;;;10.68;6.67;;;;;;;16.35;62.44;100261.55;1730252;83;21742;-72
2022/10/30 01:26:34;;;;;;;11.27;7.03;;;;;;;16.30;62.54;100272.45;1730265;83;21067;-72
2022/10/30 01:29:32;;;;;;;11.07;6.90;;;;;;;16.29;62.51;100256.84;1730201;82;21767;-72
2022/10/30 01:32:35;;;;;;;13.10;6.47;;;;;;;16.30;62.46;100263.81;1730051;83;21714;-74
2022/10/30 01:35:29;;;;;;;9.73;6.37;;;;;;;16.25;62.39;100263.11;1724718;81;21740;-72
2022/10/30 01:38:19;;;;;;;10.40;6.50;;;;;;;16.19;62.46;100248.97;1735991;81;22226;-72
2022/10/30 01:40:47;;;;;;;13.13;6.60;;;;;;;16.17;62.40;100247.12;1718026;83;21719;-72
2022/10/30 01:43:15;;;;;;;10.43;5.80;;;;;;;16.17;62.37;100236.34;1751604;81;21686;-70
2022/10/30 01:46:08;;;;;;;11.23;6.40;;;;;;;16.14;62.36;100232.90;1695535;84;22215;-72
2022/10/30 01:48:56;;;;;;;10.27;6.20;;;;;;;16.11;62.39;100222.72;1756188;81;21844;-72
2022/10/30 01:52:21;;;;;;;11.17;6.30;;;;;;;16.09;62.41;100228.42;1695599;83;21692;-72
2022/10/30 01:55:13;;;;;;;8.80;5.60;;;;;;;16.06;62.48;100234.42;1724774;83;21668;-72
2022/10/30 01:58:00;;;;;;;9.13;6.03;;;;;;;16.06;62.56;100247.89;1727397;82;21825;-73
2022/10/30 02:00:27;;;;;;;11.40;6.53;;;;;;;16.03;62.66;100248.48;1702921;83;21757;-72
2022/10/30 02:02:54;;;;;;;11.60;6.60;;;;;;;16.02;62.76;100250.91;1706711;81;21752;-72
2022/10/30 02:05:35;;;;;;;10.37;5.40;;;;;;;16.00;62.73;100259.06;1752847;81;21765;-73
2022/10/30 02:08:03;;;;;;;10.67;6.10;;;;;;;16.01;62.73;100263.34;1730067;81;22340;-72
2022/10/30 02:10:33;;;;;;;10.67;6.50;;;;;;;15.99;62.71;100265.01;1723518;83;21792;-72
2022/10/30 02:13:01;;;;;;;11.77;6.13;;;;;;;15.99;62.70;100266.36;1700387;83;21835;-73
2022/10/30 02:15:30;;;;;;;8.97;6.37;;;;;;;15.94;62.67;100263.20;1697800;83;21767;-73
2022/10/30 02:17:58;;;;;;;9.93;6.23;;;;;;;15.93;62.42;100260.27;1716283;83;21632;-71
2022/10/30 02:20:25;;;;;;;10.67;6.20;;;;;;;15.92;62.63;100261.34;1710638;83;21656;-72
2022/10/30 02:22:52;;;;;;;9.30;6.40;;;;;;;15.92;62.63;100251.12;1695564;83;22333;-72
2022/10/30 02:25:19;;;;;;;10.40;6.03;;;;;;;15.87;62.81;100251.23;1695774;83;22020;-72
2022/10/30 02:27:45;;;;;;;9.67;6.07;;;;;;;15.89;62.53;100236.38;1730384;82;21659;-72
2022/10/30 02:30:13;;;;;;;11.37;6.37;;;;;;;15.87;62.49;100256.63;1704628;83;21828;-73
2022/10/30 02:32:40;;;;;;;9.73;5.93;;;;;;;15.89;62.47;100271.39;1723179;81;21743;-73
2022/10/30 02:35:08;;;;;;;8.87;5.20;;;;;;;15.91;62.43;100269.73;1748819;81;21707;-73
2022/10/30 02:37:35;;;;;;;11.37;6.40;;;;;;;15.91;62.36;100276.47;1730624;81;21781;-73
2022/10/30 02:40:07;;;;;;;7.00;5.40;;;;;;;15.92;62.28;100264.59;1699781;82;21710;-73
2022/10/30 02:42:34;;;;;;;12.23;6.23;;;;;;;15.90;62.16;100265.45;1713814;82;21715;-73
2022/10/30 02:45:01;;;;;;;10.70;5.33;;;;;;;15.90;62.18;100274.33;1724260;83;21781;-71
2022/10/30 02:47:29;;;;;;;9.77;5.50;;;;;;;15.91;62.03;100273.77;1726988;83;21769;-72
2022/10/30 02:49:56;;;;;;;12.27;5.87;;;;;;;15.88;62.00;100282.45;1721436;81;21691;-72
2022/10/30 02:52:23;;;;;;;9.80;5.13;;;;;;;15.87;62.03;100282.20;1724766;83;22302;-71
2022/10/30 02:54:49;;;;;;;8.67;5.10;;;;;;;15.85;62.02;100295.95;1724744;83;21750;-72
2022/10/30 02:57:17;;;;;;;8.97;5.97;;;;;;;15.85;62.00;100291.13;1724900;83;21672;-73
2022/10/30 02:59:44;;;;;;;8.97;5.60;;;;;;;15.82;62.06;100287.68;1728110;81;21698;-73
2022/10/30 03:02:11;;;;;;;10.43;5.50;;;;;;;15.74;62.08;100281.09;1724910;83;22238;-73
2022/10/30 03:04:39;;;;;;;7.90;5.53;;;;;;;15.72;62.24;100276.55;1730368;82;22257;-75
2022/10/30 03:07:07;;;;;;;11.70;5.33;;;;;;;15.72;62.24;100276.55;1724599;83;21726;-72
2022/10/30 03:09:34;;;;;;;8.03;4.90;;;;;;;15.70;62.13;100280.10;1757648;81;22234;-72
2022/10/30 03:12:04;;;;;;;8.13;5.47;;;;;;;15.69;62.15;100288.73;1760411;81;21680;-72
2022/10/30 03:14:32;;;;;;;8.23;5.60;;;;;;;15.66;62.30;100286.63;1710048;83;21742;-72
2022/10/30 03:17:01;;;;;;;10.43;5.63;;;;;;;15.68;62.13;100283.63;1695777;83;21723;-72
2022/10/30 03:19:27;;;;;;;9.43;5.63;;;;;;;15.68;62.13;100289.02;1695735;84;22155;-73
2022/10/30 03:21:54;;;;;;;9.87;5.27;;;;;;;15.66;62.11;100281.73;1695819;84;21746;-73
2022/10/30 03:24:22;;;;;;;7.60;5.00;;;;;;;15.65;62.12;100284.98;1695693;84;21715;-72
2022/10/30 03:26:49;;;;;;;9.40;4.90;;;;;;;15.65;62.12;100280.16;1705456;83;21862;-72
2022/10/30 03:29:17;;;;;;;9.30;5.00;;;;;;;15.62;62.15;100286.92;1724720;83;21700;-72
2022/10/30 03:31:45;;;;;;;9.93;5.40;;;;;;;15.62;62.15;100286.92;1724944;83;21760;-72
2022/10/30 03:34:13;;;;;;;12.07;5.27;;;;;;;15.60;62.07;100281.06;1724466;83;22209;-73
2022/10/30 03:36:41;;;;;;;8.70;5.30;;;;;;;15.55;62.13;100273.06;1704226;83;21545;-73
2022/10/30 03:39:09;;;;;;;11.03;5.53;;;;;;;15.53;62.45;100275.27;1724791;83;21765;-73
2022/10/30 03:41:36;;;;;;;8.67;5.27;;;;;;;15.53;62.45;100275.27;1724470;82;21493;-74
2022/10/30 03:44:02;;;;;;;7.63;4.93;;;;;;;15.51;62.15;100282.04;1753841;81;21877;-73
2022/10/30 03:46:30;;;;;;;7.93;5.23;;;;;;;15.44;62.64;100286.46;1713597;82;21481;-72
2022/10/30 03:49:00;;;;;;;13.00;6.17;;;;;;;15.41;62.41;100278.97;1722895;83;21488;-73
2022/10/30 03:51:26;;;;;;;9.87;5.27;;;;;;;15.41;62.47;100297.27;1712393;83;21465;-72
2022/10/30 03:53:54;;;;;;;11.20;5.80;;;;;;;15.40;62.41;100292.98;1694985;83;21739;-73
2022/10/30 03:56:21;;;;;;;8.90;4.83;;;;;;;15.40;62.41;100292.98;1696166;82;21614;-73
2022/10/30 03:58:49;;;;;;;12.40;5.70;;;;;;;15.43;62.48;100298.30;1759794;81;21773;-72
2022/10/30 04:01:17;;;;;;;9.10;5.10;;;;;;;15.50;62.40;100296.05;1758827;81;21726;-73
2022/10/30 04:03:46;;;;;;;8.50;4.37;;;;;;;15.54;62.17;100290.31;1755533;81;22054;-72
2022/10/30 04:06:14;;;;;;;9.90;5.10;;;;;;;15.54;62.17;100290.31;1694695;84;21876;-72
2022/10/30 04:08:41;;;;;;;8.13;4.73;;;;;;;15.54;62.12;100293.01;1760583;80;21809;-72
2022/10/30 04:11:12;;;;;;;8.67;5.00;;;;;;;15.55;61.90;100290.56;1761042;81;21481;-73
2022/10/30 04:13:41;;;;;;;8.40;5.10;;;;;;;15.57;61.84;100291.07;1761527;80;21444;-73
2022/10/30 04:16:08;;;;;;;10.13;5.23;;;;;;;15.57;61.84;100291.07;1783889;80;21468;-72
2022/10/30 04:18:34;;;;;;;8.37;4.60;;;;;;;15.55;61.49;100290.56;1747331;82;21817;-72
2022/10/30 04:21:01;;;;;;;6.33;4.37;;;;;;;15.56;61.39;100284.63;1773319;80;21723;-72
2022/10/30 04:23:28;;;;;;;8.43;4.77;;;;;;;15.56;61.39;100284.63;1792256;80;21649;-73
2022/10/30 04:25:55;;;;;;;8.10;4.50;;;;;;;15.56;60.96;100290.00;1791938;80;21685;-72
2022/10/30 04:28:23;;;;;;;8.53;4.30;;;;;;;15.57;60.67;100284.34;1781819;80;21730;-72
2022/10/30 04:30:51;;;;;;;8.43;4.50;;;;;;;15.57;60.67;100276.27;1760813;81;21527;-72
2022/10/30 04:33:18;;;;;;;9.30;4.90;;;;;;;15.57;60.40;100276.27;1760850;81;22245;-72
2022/10/30 04:35:46;;;;;;;10.00;4.60;;;;;;;15.60;60.29;100282.41;1762232;80;21477;-74
2022/10/30 04:38:18;;;;;;;7.10;4.50;;;;;;;15.59;59.69;100280.78;1780749;80;21489;-73
2022/10/30 04:40:47;;;;;;;8.70;4.50;;;;;;;15.59;59.69;100280.78;1723165;83;21503;-73
2022/10/30 04:43:15;;;;;;;8.43;4.03;;;;;;;15.60;59.59;100285.09;1746263;81;21659;-73
2022/10/30 04:45:45;;;;;;;8.17;4.43;;;;;;;15.62;59.51;100296.90;1697625;81;21462;-75
2022/10/30 04:48:14;;;;;;;8.40;3.80;;;;;;;15.62;58.70;100307.11;1731993;81;21592;-73
2022/10/30 04:50:43;;;;;;;9.23;4.42;;;;;;;15.62;58.96;100307.11;1708499;81;21682;-72
2022/10/30 04:53:15;;;;;;;8.77;3.73;;;;;;;15.63;58.39;100302.00;1720537;83;21051;-72
2022/10/30 04:55:43;;;;;;;5.57;3.40;;;;;;;15.63;58.39;100302.00;1683049;83;21725;-74
2022/10/30 04:58:11;;;;;;;7.43;4.33;;;;;;;15.65;57.69;100307.08;1729000;83;21563;-73
2022/10/30 05:00:41;;;;;;;9.23;4.23;;;;;;;15.67;57.69;100315.14;1692008;84;21595;-74
2022/10/30 05:03:21;;;;;;;8.35;4.17;;;;;;;15.67;57.69;100315.14;1696466;83;21556;-73
2022/10/30 05:05:56;;;;;;;8.53;4.47;;;;;;;15.69;57.30;100322.39;1730771;81;21033;-74
2022/10/30 05:08:23;;;;;;;6.43;3.77;;;;;;;15.70;57.50;100319.94;1706253;83;21507;-72
2022/10/30 05:10:50;;;;;;;8.07;4.20;;;;;;;15.71;57.38;100320.18;1747632;81;22237;-74
2022/10/30 05:13:17;;;;;;;8.60;4.40;;;;;;;15.71;57.38;100320.18;1720204;83;21610;-73
2022/10/30 05:15:45;;;;;;;8.27;4.30;;;;;;;15.75;57.10;100330.36;1753560;81;22164;-73
2022/10/30 05:18:11;;;;;;;8.03;3.93;;;;;;;15.72;57.34;100323.67;1712403;83;21522;-72
2022/10/30 05:20:39;;;;;;;6.70;3.80;;;;;;;15.72;57.34;100323.67;1712445;81;21546;-72
2022/10/30 05:23:05;;;;;;;8.50;3.80;;;;;;;15.73;57.19;100319.91;1731222;81;21675;-73
2022/10/30 05:25:33;;;;;;;6.70;3.50;;;;;;;15.72;56.73;100334.44;1694761;84;21616;-74
2022/10/30 05:28:03;;;;;;;6.80;3.87;;;;;;;15.72;56.73;100334.44;1701025;83;21571;-73
2022/10/30 05:30:33;;;;;;;5.85;3.47;;;;;;;15.73;56.62;100329.84;1695950;84;21639;-74
2022/10/30 05:33:03;;;;;;;9.43;3.90;;;;;;;15.74;55.99;100336.85;1729995;83;21111;-73
2022/10/30 05:35:31;;;;;;;6.73;3.87;;;;;;;15.74;55.99;100336.85;1701352;81;21635;-74
2022/10/30 05:38:00;;;;;;;5.97;3.70;;;;;;;15.75;56.10;100341.92;1709450;83;21576;-73
2022/10/30 05:40:27;;;;;;;8.93;3.40;;;;;;;15.75;56.10;100341.92;1707056;83;21608;-72
2022/10/30 05:42:53;;;;;;;8.03;3.60;;;;;;;15.70;55.90;100344.17;1717921;81;22350;-73
2022/10/30 05:45:21;;;;;;;6.33;3.70;;;;;;;15.78;56.17;100345.92;1703509;83;21785;-73
2022/10/30 05:47:59;;;;;;;6.83;3.40;;;;;;;15.78;55.97;100353.45;1722688;83;22265;-73
2022/10/30 05:50:29;;;;;;;9.40;3.63;;;;;;;15.78;55.97;100353.45;1757613;81;21641;-72
2022/10/30 05:53:01;;;;;;;5.37;3.00;;;;;;;15.82;56.08;100352.31;1717717;81;22373;-73
2022/10/30 05:55:27;;;;;;;8.70;3.77;;;;;;;15.85;56.15;100359.25;1695050;84;22060;-74
2022/10/30 05:58:09;;;;;;;6.30;3.30;;;;;;;15.89;55.85;100364.31;1729814;83;21812;-74
2022/10/30 06:00:39;;;;;;;7.17;3.50;;;;;;;15.89;55.85;100364.31;1666886;83;21578;-72
2022/10/30 06:03:11;;;;;;;6.73;3.40;;;;;;;15.88;55.96;100365.39;1741369;81;21680;-72
2022/10/30 06:05:44;;;;;;;8.37;3.60;;;;;;;15.88;55.85;100364.59;1740637;81;21695;-73
2022/10/30 06:08:11;;;;;;;7.50;3.70;;;;;;;15.94;56.25;100374.98;1695841;83;22145;-72
2022/10/30 06:10:40;;;;;;;6.03;3.67;;;;;;;15.94;56.25;100374.98;1709112;83;22134;-73
2022/10/30 06:13:09;;;;;;;6.93;3.23;;;;;;;15.94;56.18;100379.02;1729399;81;21638;-73
2022/10/30 06:15:37;;;;;;;6.77;3.33;;;;;;;15.98;55.93;100377.88;1708267;83;21694;-74
2022/10/30 06:18:05;;;;;;;6.07;2.93;;;;;;;15.99;55.78;100382.71;1720188;83;21730;-73
2022/10/30 06:20:39;;;;;;;8.60;3.30;;;;;;;15.99;55.67;100378.15;1725863;81;21743;-73
2022/10/30 06:23:24;;;;;;;7.43;2.90;;;;;;;16.00;55.37;100382.98;1718133;82;21690;-73
2022/10/30 06:25:53;;;;;;;6.87;2.80;;;;;;;15.97;54.11;100388.41;1691853;84;21769;-73
2022/10/30 06:28:25;;;;;;;5.15;2.75;;;;;;;15.95;53.34;100381.16;1726571;81;21750;-73
2022/10/30 06:30:54;;;;;;;6.87;2.37;;;;;;;15.92;52.61;100387.14;1692733;82;21083;-75
2022/10/30 06:33:21;;;;;;;6.47;2.67;;;;;;;15.87;52.23;100399.37;1725082;82;22212;-74
2022/10/30 06:35:50;;;;;;;6.90;2.30;;;;;;;15.87;52.10;100377.82;1738619;81;21769;-77
2022/10/30 06:38:18;;;;;;;5.30;2.30;;;;;;;15.83;52.05;100413.97;1707557;83;21729;-73
2022/10/30 06:40:48;;;;;;;4.90;2.20;;;;;;;15.85;51.83;100379.45;1707196;83;22240;-72
2022/10/30 06:43:19;;;;;;;8.78;2.47;;;;;;;15.87;51.71;100385.90;1698444;81;21711;-74
2022/10/30 06:45:50;;;;;;;7.70;2.60;;;;;;;15.90;51.68;100401.47;1673862;83;21534;-71
2022/10/30 06:48:17;;;;;;;6.90;2.63;;;;;;;15.89;51.53;100389.91;1774575;80;21688;-72
2022/10/30 06:50:55;;;;;;;4.17;2.40;;;;;;;15.92;51.58;100385.24;1761272;80;22232;-72
2022/10/30 06:53:23;;;;;;;5.60;2.47;;;;;;;15.93;51.77;100395.49;1764210;80;21699;-74
2022/10/30 06:56:01;;;;;;;4.93;2.10;;;;;;;15.93;51.62;100410.31;1791816;80;22237;-74
2022/10/30 06:58:45;;;;;;;5.37;2.23;;;;;;;15.90;50.89;100416.28;1760200;80;21681;-73
2022/10/30 07:01:15;;;;;;;8.27;2.40;;;;;;;15.87;50.60;100389.94;1756985;80;21692;-73
2022/10/30 07:03:59;;;;;;;6.63;2.10;;;;;;;15.87;49.39;100391.28;1699063;83;22157;-73
2022/10/30 07:06:25;;;;;;;4.17;1.73;;;;;;;15.88;49.50;100386.94;1743755;81;21689;-74
2022/10/30 07:08:52;;;;;;;7.47;2.53;;;;;;;15.95;49.19;100408.89;1768355;80;22132;-74
2022/10/30 07:11:19;;;;;;;5.70;2.30;;;;;;;16.01;49.14;100402.87;1779246;80;22098;-73
2022/10/30 07:14:00;;;;;;;4.27;2.00;;;;;;;16.03;49.20;100390.47;1770377;80;21769;-72
2022/10/30 07:16:36;;;;;;;6.50;2.50;;;;;;;16.09;49.15;100397.34;1763293;80;22156;-71
2022/10/30 07:19:05;;;;;;;4.80;2.03;;;;;;;16.09;49.15;100397.34;1760978;81;22068;-72
2022/10/30 07:21:33;;;;;;;6.03;2.43;;;;;;;16.11;49.40;100399.20;1760663;81;21696;-72
2022/10/30 07:24:02;;;;;;;6.43;2.30;;;;;;;16.14;49.70;100389.97;1766657;80;21576;-74
2022/10/30 07:26:38;;;;;;;4.93;2.00;;;;;;;16.21;49.36;100391.48;1713293;81;21689;-75
2022/10/30 07:29:09;;;;;;;5.25;2.15;;;;;;;16.24;49.27;100396.27;1756502;81;21725;-74
2022/10/30 07:31:42;;;;;;;4.97;2.13;;;;;;;16.25;49.24;100398.66;1766412;80;21047;-74
2022/10/30 07:34:27;;;;;;;5.80;2.27;;;;;;;16.26;49.54;100383.31;1756585;80;21643;-72
2022/10/30 07:36:59;;;;;;;6.77;2.23;;;;;;;16.28;49.30;100381.09;1790117;80;21692;-72
2022/10/30 07:39:28;;;;;;;6.33;2.30;;;;;;;16.31;49.61;100395.33;1788111;80;22321;-74
2022/10/30 07:41:57;;;;;;;6.27;2.30;;;;;;;16.32;49.10;100393.69;1712263;83;21737;-72
2022/10/30 07:44:31;;;;;;;6.50;2.20;;;;;;;16.32;48.85;100393.69;1714630;81;21759;-72
2022/10/30 07:47:15;;;;;;;5.63;2.00;;;;;;;16.34;49.12;100399.56;1695600;84;21841;-73
2022/10/30 07:49:55;;;;;;;4.90;1.93;;;;;;;16.34;48.88;100394.17;1698060;81;21779;-73
2022/10/30 07:52:22;;;;;;;4.90;1.60;;;;;;;16.36;48.79;100381.20;1730421;82;21648;-72
2022/10/30 07:54:49;;;;;;;4.90;1.90;;;;;;;16.39;48.51;100394.09;1695868;84;21664;-74
2022/10/30 07:57:20;;;;;;;5.12;2.00;;;;;;;16.41;48.22;100387.03;1686861;83;22157;-74
2022/10/30 08:00:12;;;;;;;4.33;1.80;;;;;;;16.42;48.30;100399.44;1736517;81;21066;-73
2022/10/30 08:02:43;;;;;;;6.27;1.93;;;;;;;16.43;47.86;100386.75;1703299;83;21739;-73
2022/10/30 08:05:20;;;;;;;4.87;1.33;;;;;;;16.37;47.58;100384.14;1729253;81;21845;-72
2022/10/30 08:08:07;;;;;;;5.13;1.37;;;;;;;16.35;47.66;100389.05;1724392;83;21800;-73
2022/10/30 08:10:34;;;;;;;7.03;1.70;;;;;;;16.31;47.75;100400.72;1719962;83;21813;-73
2022/10/30 08:13:02;;;;;;;4.33;1.60;;;;;;;16.29;48.06;100384.06;1721261;83;21760;-73
2022/10/30 08:15:31;;;;;;;6.33;1.60;;;;;;;16.28;48.02;100396.71;1739559;81;22204;-72
2022/10/30 08:18:00;;;;;;;3.70;1.50;;;;;;;16.25;47.91;100396.52;1752030;81;21660;-72
2022/10/30 08:20:27;;;;;;;5.13;1.80;;;;;;;16.18;48.04;100394.21;1746872;81;21795;-72
2022/10/30 08:22:55;;;;;;;4.63;1.70;;;;;;;16.13;48.02;100382.99;1697829;82;21725;-72
2022/10/30 08:25:29;;;;;;;6.03;1.47;;;;;;;16.09;48.14;100396.81;1730472;83;21790;-75
2022/10/30 08:27:59;;;;;;;4.83;1.60;;;;;;;16.09;48.47;100409.47;1737692;81;22226;-73
2022/10/30 08:30:31;;;;;;;5.37;1.60;;;;;;;16.12;48.62;100401.61;1696158;84;21834;-72
2022/10/30 08:32:59;;;;;;;4.13;1.23;;;;;;;16.12;48.53;100402.96;1707916;83;21742;-71
2022/10/30 08:35:35;;;;;;;4.43;1.60;;;;;;;16.11;48.57;100406.73;1696557;81;22102;-73
2022/10/30 08:38:02;;;;;;;7.17;1.60;;;;;;;16.11;48.81;100414.81;1698988;82;21797;-72
2022/10/30 08:40:29;;;;;;;7.50;1.83;;;;;;;16.11;48.98;100416.72;1730100;83;21786;-74
2022/10/30 08:42:57;;;;;;;3.87;1.53;;;;;;;16.10;48.89;100422.66;1695728;83;21957;-73
2022/10/30 08:45:24;;;;;;;5.20;1.80;;;;;;;16.09;48.95;100413.51;1708973;81;21756;-74
2022/10/30 08:47:57;;;;;;;6.75;1.70;;;;;;;16.08;48.91;100419.45;1721221;83;21719;-72
2022/10/30 08:50:24;;;;;;;5.17;1.70;;;;;;;16.05;48.83;100416.00;1696065;84;21642;-71
2022/10/30 08:52:51;;;;;;;4.53;1.60;;;;;;;16.02;48.76;100426.57;1731603;81;21807;-75
2022/10/30 08:55:17;;;;;;;6.63;1.90;;;;;;;15.98;48.74;100439.83;1731098;81;21707;-74
2022/10/30 08:57:44;;;;;;;6.20;2.03;;;;;;;15.94;48.93;100440.97;1729288;81;21739;-73
2022/10/30 09:00:11;;;;;;;4.83;1.77;;;;;;;15.90;49.07;100427.06;1724882;83;22302;-74
2022/10/30 09:02:56;;;;;;;6.00;1.70;;;;;;;15.88;49.12;100437.31;1728676;81;22309;-73
2022/10/30 09:05:41;;;;;;;6.37;1.90;;;;;;;15.91;49.67;100430.00;1692040;84;21856;-73
2022/10/30 09:08:17;;;;;;;7.63;2.00;;;;;;;15.91;49.50;100423.26;1697869;81;21861;-72
2022/10/30 09:10:58;;;;;;;4.55;1.42;;;;;;;15.89;49.36;100425.44;1728948;83;21763;-72
2022/10/30 09:13:28;;;;;;;7.70;2.03;;;;;;;15.88;49.22;100427.89;1728977;81;21569;-72
2022/10/30 09:16:00;;;;;;;7.07;1.77;;;;;;;15.87;49.92;100424.40;1724142;83;21586;-73
2022/10/30 09:18:27;;;;;;;6.10;1.50;;;;;;;15.88;49.68;100425.20;1737426;81;22173;-72
2022/10/30 09:20:56;;;;;;;6.40;1.97;;;;;;;15.89;49.70;100417.36;1753234;81;22209;-73
2022/10/30 09:23:24;;;;;;;6.60;1.80;;;;;;;15.89;49.48;100422.74;1720156;83;22219;-71
2022/10/30 09:25:56;;;;;;;4.43;1.87;;;;;;;15.93;49.17;100420.53;1760221;80;22160;-73
2022/10/30 09:28:30;;;;;;;5.03;1.20;;;;;;;15.93;49.17;100420.53;1724681;81;21676;-74
2022/10/30 09:31:02;;;;;;;4.33;1.42;;;;;;;15.96;48.52;100427.23;1756672;80;21696;-72
2022/10/30 09:33:30;;;;;;;4.63;1.30;;;;;;;15.95;48.44;100432.34;1760916;81;21050;-72
2022/10/30 09:36:05;;;;;;;4.53;1.30;;;;;;;15.94;48.90;100424.02;1706331;83;21769;-75
2022/10/30 09:38:32;;;;;;;4.27;1.40;;;;;;;15.96;48.74;100442.05;1700627;83;22380;-72
2022/10/30 09:41:38;;;;;;;6.97;1.77;;;;;;;15.99;48.69;100418.55;1700900;83;22069;-72
2022/10/30 09:44:22;;;;;;;4.37;1.50;;;;;;;16.01;48.75;100415.00;1695421;83;21822;-72
2022/10/30 09:47:27;;;;;;;6.00;1.73;;;;;;;16.05;48.73;100416.55;1695443;84;21740;-73
2022/10/30 09:50:17;;;;;;;5.57;1.90;;;;;;;16.06;48.72;100418.17;1704082;83;22217;-72
2022/10/30 09:53:17;;;;;;;5.63;2.10;;;;;;;16.06;48.72;100418.17;1727052;82;21740;-72
2022/10/30 09:55:52;;;;;;;6.77;1.90;;;;;;;16.06;49.07;100416.82;1707441;83;21702;-71
2022/10/30 09:59:01;;;;;;;5.43;1.67;;;;;;;16.07;49.16;100418.41;1733942;81;21754;-71
2022/10/30 10:01:43;;;;;;;4.80;1.87;;;;;;;16.07;49.08;100423.25;1744627;81;21733;-72
2022/10/30 10:04:33;;;;;;;5.50;1.50;;;;;;;16.03;48.94;100418.20;1728099;81;21630;-73
2022/10/30 10:07:37;;;;;;;4.45;1.60;;;;;;;16.03;48.69;100418.20;1725893;81;21537;-72
2022/10/30 10:10:37;;;;;;;5.67;1.80;;;;;;;16.06;48.63;100419.52;1698983;83;21427;-72
2022/10/30 10:13:17;;;;;;;5.57;1.73;;;;;;;16.05;48.63;100414.65;1716485;83;21744;-72
2022/10/30 10:15:53;;;;;;;5.97;1.80;;;;;;;16.04;48.84;100413.06;1710118;81;21877;-73
2022/10/30 10:18:27;;;;;;;5.27;1.63;;;;;;;16.08;48.99;100407.88;1724820;83;21676;-72
2022/10/30 10:20:56;;;;;;;4.90;1.60;;;;;;;16.10;48.91;100413.22;1739121;81;21638;-73
2022/10/30 10:23:48;;;;;;;3.90;1.30;;;;;;;16.11;49.11;100412.12;1692464;84;21715;-73
2022/10/30 10:26:41;;;;;;;4.03;1.40;;;;;;;16.11;48.87;100418.06;1721706;82;21652;-73
2022/10/30 10:29:53;;;;;;;5.75;1.87;;;;;;;16.11;49.01;100411.33;1751147;81;21724;-73
2022/10/30 10:32:40;;;;;;;4.58;1.47;;;;;;;16.11;48.95;100406.73;1730642;81;21131;-74
2022/10/30 10:35:48;;;;;;;4.83;1.60;;;;;;;16.12;48.66;100411.05;1703452;81;20959;-73
2022/10/30 10:38:32;;;;;;;3.43;1.30;;;;;;;16.12;48.81;100397.57;1730053;83;22203;-72
2022/10/30 10:41:25;;;;;;;4.40;1.53;;;;;;;16.17;48.81;100395.32;1721268;82;22278;-73
2022/10/30 10:44:25;;;;;;;4.20;1.30;;;;;;;16.21;48.47;100404.95;1729809;83;22216;-72
2022/10/30 10:47:26;;;;;;;6.83;1.87;;;;;;;16.24;48.36;100410.55;1729808;83;21395;-73
2022/10/30 10:50:18;;;;;;;4.93;1.30;;;;;;;16.23;48.39;100405.47;1689258;82;21780;-73
2022/10/30 10:52:57;;;;;;;5.07;1.63;;;;;;;16.22;48.31;100409.23;1700917;81;21789;-73
2022/10/30 10:55:28;;;;;;;6.80;1.70;;;;;;;16.20;48.40;100393.37;1701675;83;21696;-74
2022/10/30 10:57:58;;;;;;;5.53;1.53;;;;;;;16.20;48.40;100393.37;1738456;81;21791;-73
2022/10/30 11:00:27;;;;;;;6.20;1.60;;;;;;;16.24;48.31;100394.92;1696043;84;22246;-72
2022/10/30 11:03:21;;;;;;;4.97;1.60;;;;;;;16.28;48.37;100391.88;1707381;83;21802;-72
2022/10/30 11:06:18;;;;;;;4.37;1.53;;;;;;;16.31;48.45;100384.55;1730327;83;21691;-73
2022/10/30 11:08:46;;;;;;;5.63;1.50;;;;;;;16.33;48.33;100382.36;1744211;81;21706;-72
2022/10/30 11:11:13;;;;;;;4.90;1.80;;;;;;;16.35;48.40;100388.23;1715898;83;21722;-72
2022/10/30 11:13:41;;;;;;;4.97;1.40;;;;;;;16.36;48.52;100381.77;1720011;81;21641;-73
2022/10/30 11:16:20;;;;;;;4.67;1.80;;;;;;;16.38;48.11;100362.02;1758654;81;21681;-72
2022/10/30 11:18:47;;;;;;;4.37;1.47;;;;;;;16.40;47.80;100378.16;1696487;83;22143;-72
2022/10/30 11:21:23;;;;;;;4.40;1.50;;;;;;;16.40;47.79;100377.36;1703707;83;22265;-73
2022/10/30 11:23:52;;;;;;;3.97;1.63;;;;;;;16.44;47.92;100378.91;1726095;81;21739;-72
2022/10/30 11:26:25;;;;;;;6.43;1.63;;;;;;;16.49;47.90;100367.48;1724874;83;21806;-73
2022/10/30 11:29:12;;;;;;;4.57;1.17;;;;;;;16.48;47.08;100372.59;1702388;81;21758;-73
2022/10/30 11:31:41;;;;;;;3.47;1.20;;;;;;;16.47;47.02;100355.39;1731174;81;21715;-73
2022/10/30 11:34:20;;;;;;;3.57;1.33;;;;;;;16.48;46.83;100363.72;1724474;81;21726;-73
2022/10/30 11:36:50;;;;;;;4.80;1.30;;;;;;;16.47;46.81;100368.87;1735447;81;22093;-76
2022/10/30 11:39:28;;;;;;;7.25;1.47;;;;;;;16.48;46.76;100365.86;1730043;81;21692;-72
2022/10/30 11:42:16;;;;;;;6.10;1.50;;;;;;;16.50;46.57;100371.77;1726622;81;21109;-72
2022/10/30 11:44:50;;;;;;;8.47;1.37;;;;;;;16.51;46.37;100365.27;1732819;81;21735;-75
2022/10/30 11:47:21;;;;;;;3.43;1.20;;;;;;;16.54;46.26;100371.41;1739032;81;21653;-72
2022/10/30 11:49:55;;;;;;;3.33;0.93;;;;;;;16.57;46.71;100344.39;1725123;83;21691;-73
2022/10/30 11:52:24;;;;;;;4.70;1.47;;;;;;;16.54;46.63;100345.79;1724772;83;21107;-71